CNJ4 weather

Orillia Airport
Orillia, Ontario, Canada

Public forecast

Using degrees Celsius for public forecast. Weather courtesy of forecast.io.

METAR (pilot weather report)

Closest report is Muskoka Airport, 17.8 nm (33.0 km) N. Retrieved 2019/04/21 16:00 UTC (20 minutes ago):

CYQA 211600Z AUTO 04003KT 010V090 9SM OVC009 08/07 A2999 RMK SLP167

TAF (pilot weather forecast)

Closest forecast is Muskoka Airport, 17.8 nm (33.0 km) N. Retrieved 2019/04/21 14:39 UTC (2 hours ago):

TAF CYQA 211338Z 2114/2202 VRB03KT 1/8SM FG VV002 TEMPO 2114/2115 6SM BR SCT003 OVC006 FM211500 32006KT 5SM BR BKN005 BKN020 TEMPO 2115/2117 P6SM NSW FEW005 SCT020 FM211700 29005KT P6SM FEW012 SCT030 BKN090 TEMPO 2117/2120 BKN012 RMK FCST BASED ON AUTO OBS. NXT FCST BY 212000Z